Terminal Aerodrome Forecast
Issued by NWS

Home | Current Version | Previous Version | Text Only | Print | Product List | Glossary On
Versions: 1 2 3 4 5 6 7 8 9 10 11 12 13 14 15 16 17 18 19 20 21 22 23 24
000
FTUS44 KHGX 281720
TAFLBX
TAF
KLBX 281720Z 2818/2918 VRB03KT P6SM FEW250
     FM282000 16009KT P6SM SCT250
     FM290500 18004KT 5SM BR SCT250
     FM290800 19003KT 1SM BR FEW004 SCT250
     FM291700 23005KT P6SM FEW020 BKN100=

USA.gov is the U.S. government's official web portal to all federal, state and local government web resources and services.